createdAt,value
2022-09-10T00:00:07.692Z,46.12
2022-09-10T00:01:07.681Z,46.42
2022-09-10T00:02:07.762Z,46.61
2022-09-10T00:03:07.712Z,46.42
2022-09-10T00:04:07.648Z,46.42
2022-09-10T00:05:07.656Z,46.51
2022-09-10T00:06:07.628Z,46.39
2022-09-10T00:07:07.616Z,46.51
2022-09-10T00:08:07.604Z,46.51
2022-09-10T00:09:07.598Z,46.51
2022-09-10T00:10:07.581Z,46.71
2022-09-10T00:11:07.571Z,46.42
2022-09-10T00:12:07.558Z,46.22
2022-09-10T00:13:07.550Z,46.42
2022-09-10T00:14:07.536Z,46.51
2022-09-10T00:15:07.562Z,46.39
2022-09-10T00:16:07.556Z,46.61
2022-09-10T00:17:07.503Z,46.51
2022-09-10T00:18:07.494Z,46.51
2022-09-10T00:19:07.482Z,46.51
2022-09-10T00:20:07.471Z,46.71
2022-09-10T00:21:07.486Z,46.51
2022-09-10T00:22:07.449Z,46.09
2022-09-10T00:23:07.441Z,46.49
2022-09-10T00:24:07.427Z,46.39
2022-09-10T00:25:08.498Z,46.49
2022-09-10T00:26:07.406Z,46.42
2022-09-10T00:27:07.399Z,46.51
2022-09-10T00:28:07.383Z,46.51
2022-09-10T00:29:07.374Z,46.51
2022-09-10T00:30:07.362Z,46.51
2022-09-10T00:31:07.378Z,46.42
2022-09-10T00:32:07.339Z,46.69
2022-09-10T00:33:07.348Z,46.51
2022-09-10T00:34:07.319Z,46.42
2022-09-10T00:35:07.312Z,46.71
2022-09-10T00:36:07.299Z,46.71
2022-09-10T00:37:07.303Z,46.71
2022-09-10T00:38:07.275Z,46.51
2022-09-10T00:39:07.278Z,46.51
2022-09-10T00:40:07.280Z,46.42
2022-09-10T00:41:07.242Z,46.51
2022-09-10T00:42:07.231Z,46.51
2022-09-10T00:43:07.219Z,46.09
2022-09-10T00:44:07.210Z,46.51
2022-09-10T00:45:07.204Z,46.51
2022-09-10T00:46:07.260Z,46.42
2022-09-10T00:47:07.174Z,46.69
2022-09-10T00:48:07.165Z,46.42
2022-09-10T00:49:07.155Z,46.42
2022-09-10T00:50:07.141Z,46.42
2022-09-10T00:51:07.174Z,46.51
2022-09-10T00:52:07.119Z,46.49
2022-09-10T00:53:07.132Z,46.49
2022-09-10T00:54:07.096Z,46.42
2022-09-10T00:55:07.086Z,46.42
2022-09-10T00:56:07.075Z,46.42
2022-09-10T00:57:07.069Z,46.42
2022-09-10T00:58:07.062Z,46.51
2022-09-10T00:59:07.041Z,46.51
2022-09-10T01:00:07.031Z,46.22
2022-09-10T01:01:07.104Z,46.42
2022-09-10T01:02:07.135Z,46.61
2022-09-10T01:03:07.003Z,46.51
2022-09-10T01:04:06.989Z,46.51
2022-09-10T01:05:06.975Z,46.42
2022-09-10T01:06:06.964Z,46.51
2022-09-10T01:07:06.953Z,46.51
2022-09-10T01:08:06.942Z,46.42
2022-09-10T01:09:06.957Z,46.51
2022-09-10T01:10:06.921Z,46.31
2022-09-10T01:11:06.908Z,46.51
2022-09-10T01:12:06.900Z,46.42
2022-09-10T01:13:06.888Z,46.42
2022-09-10T01:14:06.877Z,46.42
2022-09-10T01:15:06.881Z,46.51
2022-09-10T01:16:06.920Z,46.71
2022-09-10T01:17:06.842Z,46.51
2022-09-10T01:18:06.831Z,46.22
2022-09-10T01:19:06.824Z,46.51
2022-09-10T01:20:06.810Z,46.51
2022-09-10T01:21:06.807Z,46.42
2022-09-10T01:22:06.788Z,46.51
2022-09-10T01:23:06.776Z,46.51
2022-09-10T01:24:06.768Z,46.51
2022-09-10T01:25:06.777Z,46.51
2022-09-10T01:26:06.750Z,46.51
2022-09-10T01:27:06.763Z,46.12
2022-09-10T01:28:06.721Z,46.51
2022-09-10T01:29:06.710Z,46.61
2022-09-10T01:30:06.699Z,46.42
2022-09-10T01:31:06.796Z,46.42
2022-09-10T01:32:06.695Z,46.51
2022-09-10T01:33:06.673Z,46.31
2022-09-10T01:34:06.656Z,46.61
2022-09-10T01:35:06.645Z,46.61
2022-09-10T01:36:06.635Z,46.61
2022-09-10T01:37:06.624Z,46.42
2022-09-10T01:38:06.612Z,46.51
2022-09-10T01:39:06.621Z,46.12
2022-09-10T01:40:06.653Z,46.51
2022-09-10T01:41:06.599Z,46.51
2022-09-10T01:42:06.568Z,46.51
2022-09-10T01:43:06.561Z,46.61
2022-09-10T01:44:06.545Z,46.51
2022-09-10T01:45:06.541Z,46.51
2022-09-10T01:46:06.526Z,46.51
2022-09-10T01:47:06.511Z,46.42
2022-09-10T01:48:06.502Z,46.61
2022-09-10T01:49:06.490Z,46.51
2022-09-10T01:50:06.479Z,46.12
2022-09-10T01:51:06.485Z,46.51
2022-09-10T01:52:06.456Z,46.51
2022-09-10T01:53:06.445Z,46.42
2022-09-10T01:54:06.434Z,46.51
2022-09-10T01:55:06.423Z,46.22
2022-09-10T01:56:06.413Z,46.51
2022-09-10T01:57:06.448Z,46.22
2022-09-10T01:58:06.391Z,46.71
2022-09-10T01:59:06.379Z,46.22
2022-09-10T02:00:06.369Z,46.51
2022-09-10T02:01:06.435Z,46.31
2022-09-10T02:02:06.392Z,46.51
2022-09-10T02:03:06.370Z,46.61
2022-09-10T02:04:06.324Z,46.71
2022-09-10T02:05:06.318Z,46.51
2022-09-10T02:06:06.303Z,46.22
2022-09-10T02:07:06.296Z,46.51
2022-09-10T02:08:06.281Z,46.51
2022-09-10T02:09:06.275Z,46.12
2022-09-10T02:10:06.259Z,46.51
2022-09-10T02:11:06.255Z,46.02
2022-09-10T02:12:06.237Z,46.42
2022-09-10T02:13:06.246Z,46.51
2022-09-10T02:14:06.217Z,46.51
2022-09-10T02:15:06.225Z,46.31
2022-09-10T02:16:06.273Z,46.12
2022-09-10T02:17:06.182Z,46.51
2022-09-10T02:18:06.171Z,46.61
2022-09-10T02:19:06.159Z,46.51
2022-09-10T02:20:06.149Z,46.51
2022-09-10T02:21:06.148Z,46.71
2022-09-10T02:22:06.125Z,46.51
2022-09-10T02:23:06.114Z,46.51
2022-09-10T02:24:06.141Z,46.51
2022-09-10T02:25:06.093Z,46.51
2022-09-10T02:26:06.082Z,46.71
2022-09-10T02:27:06.077Z,46.51
2022-09-10T02:28:06.060Z,46.42
2022-09-10T02:29:06.072Z,46.51
2022-09-10T02:30:06.038Z,46.51
2022-09-10T02:31:06.028Z,46.42
2022-09-10T02:32:06.023Z,46.51
2022-09-10T02:33:06.010Z,46.61
2022-09-10T02:34:05.994Z,46.22
2022-09-10T02:35:05.986Z,46.12
2022-09-10T02:36:05.973Z,46.31
2022-09-10T02:37:05.961Z,46.51
2022-09-10T02:38:05.957Z,46.51
2022-09-10T02:39:05.970Z,46.51
2022-09-10T02:40:06.003Z,46.71
2022-09-10T02:41:05.917Z,46.12
2022-09-10T02:42:05.908Z,46.42
2022-09-10T02:43:05.897Z,46.12
2022-09-10T02:44:05.883Z,46.42
2022-09-10T02:45:05.901Z,46.51
2022-09-10T02:46:05.891Z,46.12
2022-09-10T02:47:05.851Z,46.12
2022-09-10T02:48:05.841Z,46.61
2022-09-10T02:49:05.829Z,46.51
2022-09-10T02:50:05.817Z,46.42
2022-09-10T02:51:05.827Z,46.51
2022-09-10T02:52:05.797Z,46.51
2022-09-10T02:53:05.791Z,46.12
2022-09-10T02:54:05.774Z,46.22
2022-09-10T02:55:05.764Z,46.12
2022-09-10T02:56:05.751Z,46.51
2022-09-10T02:57:05.758Z,46.42
2022-09-10T02:58:05.731Z,46.42
2022-09-10T02:59:05.719Z,46.42
2022-09-10T03:00:05.711Z,46.22
2022-09-10T03:01:05.740Z,46.14
2022-09-10T03:02:05.773Z,46.42
2022-09-10T03:03:05.697Z,46.42
2022-09-10T03:04:05.666Z,46.51
2022-09-10T03:05:05.722Z,46.51
2022-09-10T03:06:05.646Z,46.31
2022-09-10T03:07:05.630Z,46.12
2022-09-10T03:08:05.624Z,46.51
2022-09-10T03:09:05.619Z,46.44
2022-09-10T03:10:05.599Z,46.44
2022-09-10T03:11:05.586Z,46.42
2022-09-10T03:12:05.576Z,46.51
2022-09-10T03:13:05.568Z,46.51
2022-09-10T03:14:05.553Z,46.22
2022-09-10T03:15:05.547Z,46.14
2022-09-10T03:16:05.625Z,46.61
2022-09-10T03:17:05.540Z,46.22
2022-09-10T03:18:05.509Z,46.24
2022-09-10T03:19:05.498Z,46.71
2022-09-10T03:20:05.488Z,46.44
2022-09-10T03:21:05.498Z,46.61
2022-09-10T03:22:05.468Z,46.14
2022-09-10T03:23:05.458Z,46.14
2022-09-10T03:24:05.473Z,46.12
2022-09-10T03:25:05.436Z,46.73
2022-09-10T03:26:05.421Z,46.12
2022-09-10T03:27:05.415Z,46.14
2022-09-10T03:28:05.398Z,46.12
2022-09-10T03:29:05.389Z,46.44
2022-09-10T03:30:05.378Z,46.44
2022-09-10T03:31:05.366Z,46.24
2022-09-10T03:32:05.354Z,46.12
2022-09-10T03:33:05.380Z,46.53
2022-09-10T03:34:05.333Z,46.14
2022-09-10T03:35:05.326Z,46.64
2022-09-10T03:36:05.311Z,46.34
2022-09-10T03:37:05.299Z,45.84
2022-09-10T03:38:05.287Z,46.53
2022-09-10T03:39:05.283Z,46.04
2022-09-10T03:40:05.327Z,46.14
2022-09-10T03:41:05.257Z,46.34
2022-09-10T03:42:05.259Z,46.14
2022-09-10T03:43:05.239Z,46.14
2022-09-10T03:44:05.231Z,46.14
2022-09-10T03:45:05.243Z,46.14
2022-09-10T03:46:05.282Z,46.34
2022-09-10T03:47:05.199Z,46.31
2022-09-10T03:48:05.177Z,46.14
2022-09-10T03:49:05.190Z,46.14
2022-09-10T03:50:05.159Z,46.04
2022-09-10T03:51:05.152Z,46.34
2022-09-10T03:52:05.134Z,46.34
2022-09-10T03:53:05.122Z,46.73
2022-09-10T03:54:05.117Z,46.53
2022-09-10T03:55:05.102Z,46.53
2022-09-10T03:56:05.089Z,46.14
2022-09-10T03:57:05.099Z,46.34
2022-09-10T03:58:05.067Z,46.53
2022-09-10T03:59:05.061Z,46.34
2022-09-10T04:00:05.050Z,46.53
2022-09-10T04:01:05.117Z,46.24
2022-09-10T04:02:05.051Z,46.14
2022-09-10T04:03:05.020Z,46.24
2022-09-10T04:04:05.001Z,46.14
2022-09-10T04:05:05.015Z,46.14
2022-09-10T04:06:04.985Z,46.14
2022-09-10T04:07:04.973Z,46.73
2022-09-10T04:08:04.957Z,46.34
2022-09-10T04:09:04.981Z,46.34
2022-09-10T04:10:04.934Z,46.24
2022-09-10T04:11:04.925Z,46.34
2022-09-10T04:12:04.912Z,46.24
2022-09-10T04:13:04.903Z,46.14
2022-09-10T04:14:04.891Z,46.64
2022-09-10T04:15:04.887Z,46.44
2022-09-10T04:16:04.946Z,46.24
2022-09-10T04:17:04.859Z,46.24
2022-09-10T04:18:04.851Z,46.14
2022-09-10T04:19:04.838Z,46.34
2022-09-10T04:20:04.829Z,46.34
2022-09-10T04:21:04.864Z,46.14
2022-09-10T04:22:04.803Z,46.14
2022-09-10T04:23:04.793Z,46.31
2022-09-10T04:24:04.781Z,46.04
2022-09-10T04:25:04.771Z,46.34
2022-09-10T04:26:04.760Z,46.12
2022-09-10T04:27:04.756Z,46.14
2022-09-10T04:28:04.736Z,46.34
2022-09-10T04:29:04.730Z,46.34
2022-09-10T04:30:04.715Z,46.04
2022-09-10T04:33:24.978Z,46.14
2022-09-10T04:34:24.939Z,46.04
2022-09-10T04:35:24.927Z,46.34
2022-09-10T04:36:24.934Z,46.44
2022-09-10T04:37:24.906Z,46.14
2022-09-10T04:38:24.894Z,46.24
2022-09-10T04:39:24.902Z,46.34
2022-09-10T04:40:24.872Z,45.74
2022-09-10T04:41:24.863Z,46.24
2022-09-10T04:42:24.852Z,46.24
2022-09-10T04:43:24.839Z,46.34
2022-09-10T04:44:24.828Z,46.24
2022-09-10T04:45:24.983Z,46.14
2022-09-10T04:46:24.806Z,45.54
2022-09-10T04:47:24.796Z,46.04
2022-09-10T04:48:24.784Z,46.22
2022-09-10T04:49:24.773Z,46.14
2022-09-10T04:50:24.763Z,46.44
2022-09-10T04:51:24.783Z,46.14
2022-09-10T04:52:24.760Z,46.73
2022-09-10T04:53:24.729Z,45.45
2022-09-10T04:54:24.718Z,45.64
2022-09-10T04:55:24.706Z,45.54
2022-09-10T04:56:24.697Z,46.51
2022-09-10T04:57:24.697Z,46.24
2022-09-10T04:58:24.674Z,45.64
2022-09-10T04:59:24.665Z,46.14
2022-09-10T05:00:24.651Z,46.24
2022-09-10T05:01:24.673Z,45.45
2022-09-10T05:02:24.710Z,45.94
2022-09-10T05:03:24.625Z,46.04
2022-09-10T05:04:24.608Z,45.84
2022-09-10T05:05:24.597Z,45.84
2022-09-10T05:06:24.586Z,45.84
2022-09-10T05:07:24.575Z,45.84
2022-09-10T05:08:24.581Z,45.84
2022-09-10T05:09:24.588Z,45.84
2022-09-10T05:10:24.545Z,46.14
2022-09-10T05:11:24.532Z,46.04
2022-09-10T05:12:24.519Z,46.64
2022-09-10T05:13:24.510Z,46.64
2022-09-10T05:14:24.497Z,45.94
2022-09-10T05:15:24.503Z,46.64
2022-09-10T05:16:24.555Z,46.64
2022-09-10T05:17:24.464Z,45.94
2022-09-10T05:18:24.454Z,45.94
2022-09-10T05:19:24.443Z,46.04
2022-09-10T05:20:24.431Z,46.53
2022-09-10T05:21:24.427Z,46.44
2022-09-10T05:22:24.409Z,46.04
2022-09-10T05:23:24.399Z,46.53
2022-09-10T05:24:24.407Z,45.84
2022-09-10T05:25:24.381Z,45.74
2022-09-10T05:26:24.367Z,46.24
2022-09-10T05:27:24.388Z,45.94
2022-09-10T05:28:24.343Z,46.14
2022-09-10T05:29:24.332Z,46.24
2022-09-10T05:30:24.322Z,46.24
2022-09-10T05:31:24.335Z,46.14
2022-09-10T05:32:24.299Z,46.02
2022-09-10T05:33:24.293Z,46.04
2022-09-10T05:34:24.276Z,46.14
2022-09-10T05:35:24.266Z,45.94
2022-09-10T05:36:24.255Z,46.14
2022-09-10T05:37:24.244Z,45.94
2022-09-10T05:38:24.233Z,45.84
2022-09-10T05:39:24.229Z,45.94
2022-09-10T05:40:24.230Z,46.24
2022-09-10T05:41:24.200Z,46.04
2022-09-10T05:42:24.190Z,46.14
2022-09-10T05:43:24.178Z,46.04
2022-09-10T05:44:24.167Z,46.04
2022-09-10T05:45:24.176Z,46.24
2022-09-10T05:46:24.145Z,46.14
2022-09-10T05:47:24.133Z,46.24
2022-09-10T05:48:24.123Z,46.04
2022-09-10T05:49:24.111Z,45.92
2022-09-10T05:50:24.100Z,46.71
2022-09-10T05:51:24.107Z,46.12
2022-09-10T05:52:24.080Z,46.61
2022-09-10T05:53:24.068Z,46.22
2022-09-10T05:54:24.057Z,46.02
2022-09-10T05:55:24.044Z,46.12
2022-09-10T05:56:24.084Z,46.12
2022-09-10T05:57:24.029Z,46.22
2022-09-10T05:58:24.011Z,46.71
2022-09-10T05:59:24.003Z,46.53
2022-09-10T06:00:23.990Z,45.92
2022-09-10T06:01:23.981Z,45.72
2022-09-10T06:02:24.522Z,46.42
2022-09-10T06:03:23.989Z,46.22
2022-09-10T06:04:23.945Z,46.42
2022-09-10T06:05:23.936Z,46.42
2022-09-10T06:06:23.924Z,46.31
2022-09-10T06:07:23.913Z,46.22
2022-09-10T06:08:23.904Z,45.62
2022-09-10T06:09:23.897Z,46.22
2022-09-10T06:10:23.879Z,45.62
2022-09-10T06:11:23.869Z,45.72
2022-09-10T06:12:23.876Z,45.72
2022-09-10T06:13:23.848Z,46.24
2022-09-10T06:14:23.836Z,46.02
2022-09-10T06:15:23.847Z,45.92
2022-09-10T06:16:23.849Z,45.72
2022-09-10T06:17:23.818Z,45.92
2022-09-10T06:18:23.792Z,45.72
2022-09-10T06:19:23.780Z,45.92
2022-09-10T06:20:23.770Z,46.12
2022-09-10T06:21:27.966Z,46.12
2022-09-10T06:22:23.750Z,45.92
2022-09-10T06:23:23.736Z,45.92
2022-09-10T06:24:23.724Z,45.82
2022-09-10T06:25:23.713Z,45.92
2022-09-10T06:26:23.702Z,45.92
2022-09-10T06:27:23.706Z,45.72
2022-09-10T06:28:23.699Z,45.92
2022-09-10T06:29:23.672Z,45.92
2022-09-10T06:30:23.659Z,45.82
2022-09-10T06:31:23.648Z,45.62
2022-09-10T06:32:23.637Z,45.62
2022-09-10T06:33:23.633Z,45.92
2022-09-10T06:34:23.615Z,45.62
2022-09-10T06:35:23.604Z,46.02
2022-09-10T06:36:23.592Z,45.72
2022-09-10T06:37:23.582Z,46.02
2022-09-10T06:38:23.570Z,45.82
2022-09-10T06:39:23.589Z,45.62
2022-09-10T06:40:23.551Z,45.82
2022-09-10T06:41:23.538Z,45.62
2022-09-10T06:42:23.525Z,45.52
2022-09-10T06:43:23.514Z,45.52
2022-09-10T06:44:23.522Z,45.82
2022-09-10T06:45:23.501Z,45.92
2022-09-10T06:48:06.825Z,45.62
2022-09-10T06:48:43.283Z,46.22
2022-09-10T06:49:24.448Z,45.72
2022-09-10T06:50:23.439Z,45.92
2022-09-10T06:51:23.433Z,45.92
2022-09-10T06:52:23.426Z,46.22
2022-09-10T06:53:23.405Z,46.12
2022-09-10T06:54:23.393Z,45.72
2022-09-10T06:55:23.384Z,45.72
2022-09-10T06:56:23.371Z,45.72
2022-09-10T06:57:23.369Z,46.02
2022-09-10T06:58:23.350Z,46.31
2022-09-10T06:59:23.341Z,46.31
2022-09-10T07:00:23.349Z,45.72
2022-09-10T07:01:23.345Z,45.92
2022-09-10T07:02:23.349Z,45.90
2022-09-10T07:03:23.310Z,45.92
2022-09-10T07:04:23.287Z,45.92
2022-09-10T07:05:23.273Z,46.31
2022-09-10T07:06:23.271Z,45.79
2022-09-10T07:07:23.252Z,46.12
2022-09-10T07:08:23.240Z,45.92
2022-09-10T07:09:23.236Z,45.72
2022-09-10T07:10:23.315Z,45.62
2022-09-10T07:11:23.211Z,45.72
2022-09-10T07:12:23.195Z,45.70
2022-09-10T07:13:23.191Z,46.02
2022-09-10T07:14:23.174Z,46.22
2022-09-10T07:15:23.206Z,45.72
2022-09-10T07:16:23.170Z,45.52
2022-09-10T07:17:23.140Z,46.22
2022-09-10T07:18:23.129Z,46.02
2022-09-10T07:19:23.118Z,46.12
2022-09-10T07:20:23.166Z,46.02
2022-09-10T07:21:23.103Z,46.02
2022-09-10T07:22:23.085Z,46.02
2022-09-10T07:23:23.074Z,45.72
2022-09-10T07:24:23.063Z,45.72
2022-09-10T07:25:23.053Z,45.82
2022-09-10T07:26:23.045Z,45.82
2022-09-10T07:27:23.036Z,45.62
2022-09-10T07:28:23.020Z,46.22
2022-09-10T07:29:23.008Z,45.62
2022-09-10T07:30:23.000Z,46.09
2022-09-10T07:31:23.067Z,45.90
2022-09-10T07:32:22.994Z,46.12
2022-09-10T07:33:22.986Z,46.12
2022-09-10T07:34:22.952Z,45.90
2022-09-10T07:35:22.941Z,46.00
2022-09-10T07:36:22.930Z,45.70
2022-09-10T07:37:22.920Z,45.50
2022-09-10T07:38:22.908Z,45.72
2022-09-10T07:39:25.676Z,45.50
2022-09-10T07:40:22.886Z,45.79
2022-09-10T07:41:22.875Z,45.50
2022-09-10T07:42:22.865Z,45.60
2022-09-10T07:43:22.853Z,45.79
2022-09-10T07:44:22.850Z,45.60
2022-09-10T07:45:22.838Z,45.70
2022-09-10T07:46:22.822Z,45.60
2022-09-10T07:47:22.813Z,45.50
2022-09-10T07:48:22.818Z,45.60
2022-09-10T07:49:22.791Z,45.50
2022-09-10T07:50:22.785Z,45.60
2022-09-10T07:51:22.813Z,45.60
2022-09-10T07:52:22.754Z,45.40
2022-09-10T07:53:22.750Z,45.40
2022-09-10T07:54:22.742Z,45.50
2022-09-10T07:55:22.721Z,45.20
2022-09-10T07:56:22.712Z,45.60
2022-09-10T07:57:22.706Z,45.40
2022-09-10T07:58:22.688Z,45.50
2022-09-10T07:59:22.679Z,45.20
2022-09-10T08:00:22.668Z,45.40
2022-09-10T08:01:22.719Z,45.00
2022-09-10T08:02:22.686Z,45.40
2022-09-10T08:03:22.646Z,45.40
2022-09-10T08:04:22.643Z,45.70
2022-09-10T08:05:22.612Z,45.40
2022-09-10T08:06:22.601Z,45.70
2022-09-10T08:07:22.590Z,45.90
2022-09-10T08:08:22.579Z,45.90
2022-09-10T08:09:22.574Z,45.00
2022-09-10T08:10:22.557Z,45.60
2022-09-10T08:11:22.552Z,44.90
2022-09-10T08:12:22.537Z,45.60
2022-09-10T08:13:22.540Z,45.00
2022-09-10T08:14:22.517Z,45.08
2022-09-10T08:15:22.516Z,44.90
2022-09-10T08:16:22.492Z,44.78
2022-09-10T08:17:22.480Z,44.81
2022-09-10T08:18:22.470Z,44.98
2022-09-10T08:19:22.459Z,45.30
2022-09-10T08:20:22.464Z,44.81
2022-09-10T08:21:22.458Z,44.59
2022-09-10T08:22:22.424Z,44.90
2022-09-10T08:23:22.417Z,44.59
2022-09-10T08:24:22.401Z,44.49
2022-09-10T08:25:22.396Z,44.90
2022-09-10T08:26:22.380Z,44.78
2022-09-10T08:27:22.400Z,44.51
2022-09-10T08:28:25.331Z,44.89
2022-09-10T08:29:22.347Z,44.90
2022-09-10T08:30:22.336Z,44.68
2022-09-10T08:31:22.372Z,44.71
2022-09-10T08:32:22.315Z,44.71
2022-09-10T08:33:22.324Z,44.71
2022-09-10T08:34:22.291Z,45.08
2022-09-10T08:35:22.281Z,44.49
2022-09-10T08:36:22.289Z,45.20
2022-09-10T08:37:22.259Z,45.08
2022-09-10T08:38:22.251Z,45.08
2022-09-10T08:39:22.244Z,45.18
2022-09-10T08:40:22.225Z,45.18
2022-09-10T08:41:22.217Z,44.49
2022-09-10T08:42:22.209Z,44.89
2022-09-10T08:43:22.193Z,44.98
2022-09-10T08:44:22.181Z,44.68
2022-09-10T08:45:22.179Z,44.89
2022-09-10T08:46:22.160Z,44.89
2022-09-10T08:47:22.147Z,44.09
2022-09-10T08:48:22.142Z,44.29
2022-09-10T08:49:22.128Z,44.29
2022-09-10T08:50:22.115Z,44.39
2022-09-10T08:51:22.120Z,44.49
2022-09-10T08:52:22.118Z,44.46
2022-09-10T08:53:22.082Z,44.59
2022-09-10T08:54:22.070Z,44.39
2022-09-10T08:55:22.059Z,44.78
2022-09-10T08:56:22.049Z,44.56
2022-09-10T08:57:22.045Z,44.78
2022-09-10T08:58:22.027Z,44.56
2022-09-10T08:59:22.016Z,44.89
2022-09-10T09:00:22.005Z,44.86
2022-09-10T09:01:22.173Z,44.46
2022-09-10T09:02:44.739Z,44.46
2022-09-10T09:03:23.066Z,44.56
2022-09-10T09:04:21.963Z,44.37
2022-09-10T09:05:21.950Z,44.37
2022-09-10T09:06:21.939Z,44.27
2022-09-10T09:07:21.928Z,44.27
2022-09-10T09:08:21.940Z,44.17
2022-09-10T09:09:21.916Z,44.27
2022-09-10T09:10:21.896Z,43.87
2022-09-10T09:11:21.884Z,43.97
2022-09-10T09:12:21.873Z,44.27
2022-09-10T09:13:21.873Z,44.35
2022-09-10T09:14:21.851Z,44.17
2022-09-10T09:15:21.845Z,43.97
2022-09-10T09:16:21.830Z,43.95
2022-09-10T09:17:21.818Z,44.07
2022-09-10T09:18:21.806Z,43.95
2022-09-10T09:19:21.796Z,43.65
2022-09-10T09:20:21.785Z,43.65
2022-09-10T09:21:21.781Z,43.85
2022-09-10T09:22:21.763Z,43.85
2022-09-10T09:23:21.755Z,43.55
2022-09-10T09:24:21.771Z,43.55
2022-09-10T09:25:21.731Z,43.55
2022-09-10T09:26:21.719Z,44.15
2022-09-10T09:27:21.742Z,43.85
2022-09-10T09:28:21.697Z,43.73
2022-09-10T09:29:21.685Z,43.63
2022-09-10T09:30:21.675Z,43.06
2022-09-10T09:31:21.697Z,43.43
2022-09-10T09:32:21.653Z,43.04
2022-09-10T09:33:21.648Z,43.13
2022-09-10T09:34:21.631Z,42.94
2022-09-10T09:35:21.620Z,42.74
2022-09-10T09:36:21.608Z,42.94
2022-09-10T09:37:21.599Z,43.04
2022-09-10T09:38:21.588Z,42.64
2022-09-10T09:39:25.322Z,42.84
2022-09-10T09:40:21.582Z,43.02
2022-09-10T09:41:21.553Z,43.02
2022-09-10T09:42:21.542Z,42.62
2022-09-10T09:43:21.532Z,42.62
2022-09-10T09:44:21.520Z,42.52
2022-09-10T09:45:21.517Z,42.82
2022-09-10T09:46:21.499Z,42.72
2022-09-10T09:47:21.488Z,42.62
2022-09-10T09:48:21.480Z,43.21
2022-09-10T09:49:21.465Z,43.02
2022-09-10T09:50:21.455Z,42.99
2022-09-10T09:51:21.450Z,42.90
2022-09-10T09:52:21.433Z,42.90
2022-09-10T09:53:21.421Z,42.72
2022-09-10T09:55:22.398Z,42.90
2022-09-10T09:56:21.410Z,42.60
2022-09-10T09:57:21.383Z,42.40
2022-09-10T09:58:21.366Z,42.30
2022-09-10T09:59:21.356Z,42.19
2022-09-10T10:00:21.344Z,41.99
2022-09-10T10:01:21.364Z,41.99
2022-09-10T10:02:21.357Z,41.99
2022-09-10T10:03:21.319Z,41.77
2022-09-10T10:04:21.301Z,41.75
2022-09-10T10:05:21.290Z,41.16
2022-09-10T10:06:21.279Z,41.16
2022-09-10T10:07:21.268Z,41.67
2022-09-10T10:08:21.258Z,41.77
2022-09-10T10:09:21.255Z,41.67
2022-09-10T10:10:21.235Z,42.16
2022-09-10T10:11:21.223Z,41.87
2022-09-10T10:12:21.233Z,41.97
2022-09-10T10:13:21.202Z,41.65
2022-09-10T10:14:21.191Z,40.62
2022-09-10T10:15:21.187Z,39.70
2022-09-10T10:16:21.170Z,38.38
2022-09-10T10:17:21.159Z,37.77
2022-09-10T10:18:21.147Z,37.34
2022-09-10T10:19:21.137Z,36.83
2022-09-10T10:20:21.126Z,36.63
2022-09-10T10:21:21.126Z,36.13
2022-09-10T10:22:21.104Z,36.13
2022-09-10T10:23:21.094Z,36.01
2022-09-10T10:24:21.081Z,36.39
2022-09-10T10:25:21.070Z,36.27
2022-09-10T10:26:21.059Z,35.76
2022-09-10T10:27:21.073Z,35.35
2022-09-10T10:28:21.058Z,35.76
2022-09-10T10:29:21.029Z,35.85
2022-09-10T10:30:21.033Z,34.36
2022-09-10T10:31:21.104Z,35.04
2022-09-10T10:32:20.995Z,34.54
2022-09-10T10:33:20.989Z,34.91
2022-09-10T10:34:20.972Z,34.31
2022-09-10T10:35:20.962Z,33.53
2022-09-10T10:36:20.950Z,33.84
2022-09-10T10:37:20.938Z,33.92
2022-09-10T10:38:20.927Z,33.12
2022-09-10T10:39:20.922Z,33.02
2022-09-10T10:40:20.906Z,33.01
2022-09-10T10:41:20.895Z,33.12
2022-09-10T10:42:20.887Z,34.44
2022-09-10T10:43:20.873Z,34.86
2022-09-10T10:44:20.885Z,35.37
2022-09-10T10:45:20.881Z,34.90
2022-09-10T10:46:20.953Z,35.60
2022-09-10T10:47:20.830Z,36.30
2022-09-10T10:48:20.820Z,36.09
2022-09-10T10:49:20.807Z,35.55
2022-09-10T10:50:20.797Z,34.94
2022-09-10T10:51:20.791Z,34.24
2022-09-10T10:52:20.774Z,34.21
2022-09-10T10:53:20.765Z,33.82
2022-09-10T10:54:20.754Z,33.02
2022-09-10T10:55:20.741Z,33.92
2022-09-10T10:56:20.733Z,34.41
2022-09-10T10:57:20.728Z,32.92
2022-09-10T10:58:20.710Z,33.72
2022-09-10T10:59:20.700Z,34.01
2022-09-10T11:00:20.711Z,34.42
2022-09-10T11:01:20.703Z,34.05
2022-09-10T11:02:20.709Z,34.05
2022-09-10T11:03:20.671Z,34.31
2022-09-10T11:04:20.645Z,33.92
2022-09-10T11:05:20.641Z,34.62
2022-09-10T11:06:20.622Z,34.36
2022-09-10T11:07:20.612Z,34.36
2022-09-10T11:08:20.602Z,34.44
2022-09-10T11:09:20.596Z,34.55
2022-09-10T11:10:20.579Z,35.94
2022-09-10T11:11:20.584Z,35.37
2022-09-10T11:12:20.560Z,35.17
2022-09-10T11:13:20.548Z,35.73
2022-09-10T11:14:20.537Z,34.45
2022-09-10T11:15:20.548Z,35.32
2022-09-10T11:16:20.534Z,34.23
2022-09-10T11:17:20.506Z,34.52
2022-09-10T11:18:20.496Z,34.05
2022-09-10T11:19:20.484Z,34.55
2022-09-10T11:20:29.381Z,35.85
2022-09-10T11:21:21.493Z,35.17
2022-09-10T11:22:20.455Z,35.19
2022-09-10T11:23:20.443Z,36.09
2022-09-10T11:24:20.432Z,36.37
2022-09-10T11:25:20.422Z,36.35
2022-09-10T11:26:20.411Z,35.57
2022-09-10T11:27:20.410Z,35.25
2022-09-10T11:28:20.390Z,35.16
2022-09-10T11:29:20.378Z,35.96
2022-09-10T11:30:20.367Z,36.18
2022-09-10T11:31:20.388Z,36.35
2022-09-10T11:32:20.365Z,35.08
2022-09-10T11:33:20.359Z,35.27
2022-09-10T11:34:20.325Z,35.35
2022-09-10T11:35:20.315Z,35.25
2022-09-10T11:36:20.304Z,35.35
2022-09-10T11:37:20.297Z,35.35
2022-09-10T11:38:20.284Z,35.25
2022-09-10T11:39:20.289Z,35.35
2022-09-10T11:40:20.262Z,35.55
2022-09-10T11:41:20.253Z,35.45
2022-09-10T11:42:20.241Z,35.16
2022-09-10T11:43:20.230Z,35.16
2022-09-10T11:44:20.220Z,35.47
2022-09-10T11:45:20.215Z,36.16
2022-09-10T11:46:20.219Z,36.27
2022-09-10T11:47:20.189Z,36.29
2022-09-10T11:48:20.200Z,36.08
2022-09-10T11:49:20.169Z,35.47
2022-09-10T11:50:20.160Z,36.25
2022-09-10T11:51:20.162Z,36.55
2022-09-10T11:52:20.139Z,36.35
2022-09-10T11:53:20.129Z,36.08
2022-09-10T11:54:20.117Z,36.29
2022-09-10T11:55:20.109Z,36.39
2022-09-10T11:56:20.095Z,36.57
2022-09-10T11:57:20.116Z,36.66
2022-09-10T11:58:20.076Z,36.18
2022-09-10T11:59:20.065Z,35.68
2022-09-10T12:00:20.053Z,36.29
2022-09-10T12:01:20.058Z,36.58
2022-09-10T12:02:20.102Z,36.21
2022-09-10T12:03:20.070Z,36.29
2022-09-10T12:04:20.048Z,36.68
2022-09-10T12:05:20.003Z,35.80
2022-09-10T12:06:19.993Z,36.08
2022-09-10T12:07:19.983Z,36.08
2022-09-10T12:08:19.972Z,36.47
2022-09-10T12:09:19.967Z,36.57
2022-09-10T12:10:19.955Z,36.66
2022-09-10T12:11:19.940Z,36.27
2022-09-10T12:12:19.931Z,36.19
2022-09-10T12:13:19.922Z,36.09
2022-09-10T12:14:19.909Z,36.58
2022-09-10T12:15:19.905Z,36.90
2022-09-10T12:16:19.972Z,36.99
2022-09-10T12:17:19.878Z,36.99
2022-09-10T12:18:19.868Z,37.09
2022-09-10T12:19:19.859Z,36.80
2022-09-10T12:20:19.869Z,36.51
2022-09-10T12:21:19.857Z,36.80
2022-09-10T12:22:19.831Z,36.90
2022-09-10T12:23:19.817Z,37.19
2022-09-10T12:24:19.806Z,36.90
2022-09-10T12:25:19.796Z,36.90
2022-09-10T12:26:19.792Z,37.09
2022-09-10T12:27:19.779Z,36.99
2022-09-10T12:28:19.764Z,36.80
2022-09-10T12:29:19.754Z,36.99
2022-09-10T12:30:19.744Z,36.80
2022-09-10T12:31:19.827Z,37.60
2022-09-10T12:32:19.733Z,37.30
2022-09-10T12:33:19.745Z,37.42
2022-09-10T12:34:19.702Z,37.32
2022-09-10T12:35:19.691Z,37.21
2022-09-10T12:36:19.700Z,37.90
2022-09-10T12:37:19.672Z,37.88
2022-09-10T12:38:19.662Z,36.70
2022-09-10T12:39:19.703Z,36.90
2022-09-10T12:40:19.665Z,36.90
2022-09-10T12:41:19.629Z,36.80
2022-09-10T12:42:19.619Z,37.09
2022-09-10T12:43:19.608Z,37.27
2022-09-10T12:44:19.598Z,36.70
2022-09-10T12:45:19.605Z,37.27
2022-09-10T12:46:19.714Z,37.09
2022-09-10T12:47:19.568Z,37.19
2022-09-10T12:48:22.863Z,36.99
2022-09-10T12:49:20.545Z,36.78
2022-09-10T12:50:19.538Z,36.98
2022-09-10T12:51:19.532Z,36.99
2022-09-10T12:52:19.543Z,36.88
2022-09-10T12:53:19.506Z,37.07
2022-09-10T12:54:19.494Z,36.98
2022-09-10T12:55:19.484Z,37.07
2022-09-10T12:56:19.474Z,36.78